Time;durP1;ratioP1;P1;durP2;ratioP2;P2;SDS_P1;SDS_P2;PMS_P1;PMS_P2;Temp;Humidity;BMP_temperature;BMP_pressure;BME280_temperature;BME280_humidity;BME280_pressure;Samples;Min_cycle;Max_cycle;Signal;HPM_P1;HPM_P2
2021/12/14 00:00:45;;;;;;;34.72;19.70;;;;;;;;;;2372209;56;21610;-74
2021/12/14 00:03:15;;;;;;;31.15;18.65;;;;;;;;;;2372574;56;21103;-73
2021/12/14 00:05:43;;;;;;;32.00;18.45;;;;;;;;;;2372320;56;21111;-74
2021/12/14 00:08:13;;;;;;;34.30;17.80;;;;;;;;;;2372726;56;21123;-75
2021/12/14 00:10:51;;;;;;;28.42;17.40;;;;;;;;;;2372446;56;21131;-75
2021/12/14 00:13:27;;;;;;;33.83;18.52;;;;;;;;;;2544367;52;21445;-75
2021/12/14 00:15:55;;;;;;;32.83;19.62;;;;;;;;;;2372179;56;21114;-75
2021/12/14 00:18:22;;;;;;;33.30;19.25;;;;;;;;;;2378299;52;21115;-74
2021/12/14 00:20:51;;;;;;;30.25;18.75;;;;;;;;;;2372207;56;21044;-74
2021/12/14 00:29:00;;;;;;;33.30;22.37;;;;;;;;;;2388691;53;38171;-73
2021/12/14 00:31:27;;;;;;;34.90;18.80;;;;;;;;;;2346242;57;21108;-74
2021/12/14 00:33:56;;;;;;;35.90;18.92;;;;;;;;;;2346142;57;21124;-74
2021/12/14 00:36:23;;;;;;;34.85;19.80;;;;;;;;;;2359586;53;21041;-76
2021/12/14 00:38:56;;;;;;;32.65;18.37;;;;;;;;;;2344642;57;21058;-76
2021/12/14 00:41:25;;;;;;;33.72;19.55;;;;;;;;;;2345232;57;21097;-76
2021/12/14 00:43:52;;;;;;;35.10;18.62;;;;;;;;;;2351385;53;21030;-76
2021/12/14 00:46:19;;;;;;;34.63;18.92;;;;;;;;;;2349201;53;21390;-76
2021/12/14 00:48:47;;;;;;;35.50;18.75;;;;;;;;;;2347865;53;21050;-76
2021/12/14 00:51:14;;;;;;;31.60;18.15;;;;;;;;;;2393241;53;21057;-77
2021/12/14 00:53:42;;;;;;;30.08;17.85;;;;;;;;;;2344760;57;21058;-74
2021/12/14 00:56:10;;;;;;;29.20;16.08;;;;;;;;;;2344693;57;21127;-75
2021/12/14 00:58:37;;;;;;;31.12;16.70;;;;;;;;;;2344470;57;21038;-76
2021/12/14 01:01:06;;;;;;;33.17;19.00;;;;;;;;;;2429205;53;21113;-76
2021/12/14 01:03:34;;;;;;;35.20;18.62;;;;;;;;;;2345051;57;21038;-76
2021/12/14 01:06:02;;;;;;;34.35;17.48;;;;;;;;;;2344719;57;21058;-74
2021/12/14 01:08:32;;;;;;;38.80;20.50;;;;;;;;;;2344541;57;21107;-74
2021/12/14 01:11:04;;;;;;;31.10;18.20;;;;;;;;;;2344269;57;21130;-74
2021/12/14 01:13:33;;;;;;;32.35;18.37;;;;;;;;;;2344873;57;21038;-75
2021/12/14 01:16:14;;;;;;;31.70;18.48;;;;;;;;;;2344669;57;21110;-76
2021/12/14 01:18:47;;;;;;;31.60;17.80;;;;;;;;;;2344815;57;21049;-75
2021/12/14 01:21:20;;;;;;;;;;;;;;;;;;2348271;57;21046;-76
2021/12/14 01:23:47;;;;;;;29.87;16.15;;;;;;;;;;2344997;57;20083;-75
2021/12/14 01:26:17;;;;;;;29.63;15.90;;;;;;;;;;2344745;57;21560;-76
2021/12/14 01:28:45;;;;;;;30.00;17.42;;;;;;;;;;2344655;57;21652;-76
2021/12/14 01:31:18;;;;;;;29.98;17.50;;;;;;;;;;2344276;57;21049;-75
2021/12/14 01:33:46;;;;;;;32.75;18.83;;;;;;;;;;2344952;57;21042;-77
2021/12/14 01:36:25;;;;;;;33.90;17.98;;;;;;;;;;2344183;57;21497;-76
2021/12/14 01:39:10;;;;;;;32.72;16.73;;;;;;;;;;2344022;57;21129;-76
2021/12/14 01:41:38;;;;;;;33.88;16.73;;;;;;;;;;2343132;57;21097;-76
2021/12/14 01:44:06;;;;;;;31.40;17.08;;;;;;;;;;2360536;53;21106;-76
2021/12/14 01:46:34;;;;;;;32.05;17.48;;;;;;;;;;2387791;53;21126;-73
2021/12/14 01:49:06;;;;;;;30.42;16.70;;;;;;;;;;2343088;57;21320;-76
2021/12/14 01:51:34;;;;;;;36.13;19.45;;;;;;;;;;2343330;57;21053;-76
2021/12/14 01:54:02;;;;;;;32.53;16.75;;;;;;;;;;2343450;57;21038;-75
2021/12/14 01:56:30;;;;;;;32.88;16.85;;;;;;;;;;2351851;53;21125;-76
2021/12/14 01:58:58;;;;;;;24.70;14.63;;;;;;;;;;2343015;57;21042;-74
2021/12/14 02:01:28;;;;;;;28.90;16.00;;;;;;;;;;2343602;57;21121;-76
2021/12/14 02:03:57;;;;;;;26.77;16.33;;;;;;;;;;2343466;57;21023;-76
2021/12/14 02:06:25;;;;;;;23.95;14.07;;;;;;;;;;2343570;57;21038;-75
2021/12/14 02:08:56;;;;;;;25.37;14.95;;;;;;;;;;2343544;57;21192;-75
2021/12/14 02:11:25;;;;;;;26.85;14.82;;;;;;;;;;2343409;57;21074;-77
2021/12/14 02:13:53;;;;;;;23.73;15.30;;;;;;;;;;2342766;57;21049;-74
2021/12/14 02:16:21;;;;;;;29.60;14.35;;;;;;;;;;2343864;57;21591;-75
2021/12/14 02:18:51;;;;;;;30.33;16.17;;;;;;;;;;2357428;53;21563;-76
2021/12/14 02:21:18;;;;;;;25.42;14.50;;;;;;;;;;2344733;57;21026;-76
2021/12/14 02:23:47;;;;;;;22.77;13.70;;;;;;;;;;2344833;57;21034;-76
2021/12/14 02:26:15;;;;;;;26.90;15.23;;;;;;;;;;2344688;57;21046;-76
2021/12/14 02:28:42;;;;;;;24.33;15.13;;;;;;;;;;2344829;57;21018;-74
2021/12/14 02:31:11;;;;;;;25.60;13.48;;;;;;;;;;2344225;57;21103;-75
2021/12/14 02:33:40;;;;;;;25.27;15.70;;;;;;;;;;2344772;57;21512;-76
2021/12/14 02:36:09;;;;;;;25.85;15.75;;;;;;;;;;2344602;57;21098;-76
2021/12/14 02:38:40;;;;;;;25.45;14.63;;;;;;;;;;2375292;53;21042;-76
2021/12/14 02:41:08;;;;;;;27.65;16.80;;;;;;;;;;2345553;57;21105;-76
2021/12/14 02:43:37;;;;;;;24.77;14.35;;;;;;;;;;2372204;53;21540;-76
2021/12/14 02:46:07;;;;;;;27.95;15.75;;;;;;;;;;2344644;57;21372;-74
2021/12/14 02:48:34;;;;;;;25.48;14.98;;;;;;;;;;2344310;57;21038;-74
2021/12/14 02:51:07;;;;;;;27.08;15.52;;;;;;;;;;2344727;57;21128;-76
2021/12/14 02:53:34;;;;;;;26.90;16.12;;;;;;;;;;2347259;53;21105;-76
2021/12/14 02:56:01;;;;;;;30.00;14.73;;;;;;;;;;2345095;57;21046;-76
2021/12/14 02:58:28;;;;;;;26.55;14.63;;;;;;;;;;2345209;57;21130;-76
2021/12/14 03:00:58;;;;;;;29.27;15.88;;;;;;;;;;2344133;57;21046;-76
2021/12/14 03:03:26;;;;;;;23.23;13.70;;;;;;;;;;2437764;53;21042;-75
2021/12/14 03:05:53;;;;;;;26.02;15.30;;;;;;;;;;2344212;57;21038;-74
2021/12/14 03:08:21;;;;;;;24.35;14.52;;;;;;;;;;2344902;57;21113;-75
2021/12/14 03:10:56;;;;;;;27.60;16.45;;;;;;;;;;2344515;57;21038;-76
2021/12/14 03:13:24;;;;;;;29.45;16.33;;;;;;;;;;2344319;57;21030;-76
2021/12/14 03:15:53;;;;;;;25.73;15.27;;;;;;;;;;2344815;57;21034;-76
2021/12/14 03:18:21;;;;;;;28.98;14.87;;;;;;;;;;2352599;53;21050;-77
2021/12/14 03:20:50;;;;;;;26.02;15.63;;;;;;;;;;2344510;57;21109;-75
2021/12/14 03:23:19;;;;;;;24.77;15.00;;;;;;;;;;2344427;57;21022;-76
2021/12/14 03:25:52;;;;;;;26.87;15.63;;;;;;;;;;2364712;53;21033;-74
2021/12/14 03:28:20;;;;;;;29.08;16.50;;;;;;;;;;2344718;57;21542;-76
2021/12/14 03:30:52;;;;;;;28.10;16.02;;;;;;;;;;2343998;57;21097;-76
2021/12/14 03:33:22;;;;;;;29.33;16.15;;;;;;;;;;2344555;57;21674;-75
2021/12/14 03:35:52;;;;;;;29.27;17.17;;;;;;;;;;2344321;57;21117;-75
2021/12/14 03:38:20;;;;;;;29.92;15.90;;;;;;;;;;2343864;57;21030;-76
2021/12/14 03:40:53;;;;;;;28.35;17.02;;;;;;;;;;2343663;57;21228;-75
2021/12/14 03:43:20;;;;;;;29.58;17.77;;;;;;;;;;2344711;57;21046;-76
2021/12/14 03:45:47;;;;;;;30.88;17.30;;;;;;;;;;2344379;57;21134;-76
2021/12/14 03:48:14;;;;;;;25.48;14.95;;;;;;;;;;2344042;57;21552;-75
2021/12/14 03:50:42;;;;;;;25.77;15.13;;;;;;;;;;2354433;53;21533;-75
2021/12/14 03:53:10;;;;;;;25.08;14.45;;;;;;;;;;2441823;53;21066;-76
2021/12/14 03:55:39;;;;;;;25.00;15.85;;;;;;;;;;2344814;57;21106;-76
2021/12/14 03:58:08;;;;;;;26.62;14.45;;;;;;;;;;2344676;57;21090;-74
2021/12/14 04:00:37;;;;;;;26.15;16.75;;;;;;;;;;2515727;53;21115;-76
2021/12/14 04:03:08;;;;;;;27.70;16.58;;;;;;;;;;2343903;57;21609;-76
2021/12/14 04:05:35;;;;;;;26.10;15.45;;;;;;;;;;2344521;54;21120;-76
2021/12/14 04:08:03;;;;;;;29.30;15.10;;;;;;;;;;2344543;57;21105;-74
2021/12/14 04:10:32;;;;;;;26.30;15.45;;;;;;;;;;2344274;57;21109;-75
2021/12/14 04:13:00;;;;;;;27.27;15.95;;;;;;;;;;2343408;57;21192;-73
2021/12/14 04:15:28;;;;;;;28.30;17.00;;;;;;;;;;2344121;57;21058;-75
2021/12/14 04:17:55;;;;;;;30.58;16.17;;;;;;;;;;2344203;57;21125;-76
2021/12/14 04:20:24;;;;;;;25.00;13.85;;;;;;;;;;2344606;57;21018;-76
2021/12/14 04:22:51;;;;;;;27.13;15.15;;;;;;;;;;2344286;57;21034;-76
2021/12/14 04:25:19;;;;;;;26.62;14.85;;;;;;;;;;2345009;57;21015;-76
2021/12/14 04:27:47;;;;;;;27.33;16.50;;;;;;;;;;2344516;57;21105;-76
2021/12/14 04:30:17;;;;;;;26.90;16.65;;;;;;;;;;2364239;52;21154;-76
2021/12/14 04:32:47;;;;;;;26.75;14.68;;;;;;;;;;2376576;56;21014;-76
2021/12/14 04:35:14;;;;;;;28.77;16.55;;;;;;;;;;2630168;52;21006;-76
2021/12/14 04:37:43;;;;;;;24.92;15.38;;;;;;;;;;2375775;56;21094;-77
2021/12/14 04:40:22;;;;;;;25.20;15.32;;;;;;;;;;2628403;52;21119;-76
2021/12/14 04:53:54;;;;;;;22.25;13.57;;;;;;;;;;2374294;56;21042;-77
2021/12/14 04:56:22;;;;;;;28.83;14.90;;;;;;;;;;2374854;56;21028;-77
2021/12/14 04:58:55;;;;;;;27.37;16.55;;;;;;;;;;2374200;56;21102;-77
2021/12/14 05:01:23;;;;;;;23.08;14.10;;;;;;;;;;2628311;52;21027;-77
2021/12/14 05:03:52;;;;;;;23.17;13.27;;;;;;;;;;2374706;56;21063;-77
2021/12/14 05:06:22;;;;;;;22.87;12.55;;;;;;;;;;2374983;56;21047;-77
2021/12/14 05:11:36;;;;;;;20.85;13.18;;;;;;;;;;2374985;56;20943;-77
2021/12/14 05:14:06;;;;;;;24.70;14.85;;;;;;;;;;2374810;56;21007;-77
2021/12/14 05:16:33;;;;;;;23.12;14.57;;;;;;;;;;2375094;56;21023;-77
2021/12/14 05:19:02;;;;;;;28.92;15.68;;;;;;;;;;2375003;56;21031;-77
2021/12/14 05:21:30;;;;;;;21.35;13.25;;;;;;;;;;2375157;56;21086;-77
2021/12/14 05:23:58;;;;;;;23.33;13.60;;;;;;;;;;2628773;52;21004;-77
2021/12/14 05:26:25;;;;;;;23.62;14.75;;;;;;;;;;2628019;52;21003;-77
2021/12/14 05:28:53;;;;;;;22.52;13.43;;;;;;;;;;2373935;56;21710;-77
2021/12/14 05:31:21;;;;;;;22.70;13.45;;;;;;;;;;2373865;56;21501;-77
2021/12/14 05:33:48;;;;;;;26.80;13.00;;;;;;;;;;2374901;56;21354;-77
2021/12/14 05:36:16;;;;;;;18.45;11.70;;;;;;;;;;2374544;56;21286;-77
2021/12/14 05:38:52;;;;;;;25.48;15.18;;;;;;;;;;2374464;56;21592;-77
2021/12/14 05:44:09;;;;;;;23.98;14.65;;;;;;;;;;2374733;56;20971;-77
2021/12/14 05:46:36;;;;;;;24.80;13.07;;;;;;;;;;2628020;52;21067;-76
2021/12/14 05:49:05;;;;;;;23.60;14.30;;;;;;;;;;2374456;56;21130;-76
2021/12/14 05:51:32;;;;;;;20.17;12.37;;;;;;;;;;2374440;56;21074;-77
2021/12/14 05:54:00;;;;;;;21.90;12.95;;;;;;;;;;2374876;56;21011;-76
2021/12/14 05:56:29;;;;;;;20.70;12.52;;;;;;;;;;2375644;56;21102;-78
2021/12/14 05:58:57;;;;;;;20.42;12.65;;;;;;;;;;2628798;52;21043;-76
2021/12/14 06:01:25;;;;;;;19.70;13.25;;;;;;;;;;2627428;52;22253;-78
2021/12/14 06:03:54;;;;;;;22.52;12.50;;;;;;;;;;2374210;56;22252;-74
2021/12/14 06:06:22;;;;;;;22.00;14.00;;;;;;;;;;2374254;56;21027;-75
2021/12/14 06:08:49;;;;;;;20.50;13.07;;;;;;;;;;2373715;56;21098;-76
2021/12/14 06:11:20;;;;;;;21.17;12.02;;;;;;;;;;2374459;56;21070;-75
2021/12/14 06:13:47;;;;;;;22.92;12.77;;;;;;;;;;2361190;56;21471;-74
2021/12/14 06:16:23;;;;;;;19.27;11.90;;;;;;;;;;2373972;56;21565;-75
2021/12/14 06:18:50;;;;;;;19.12;12.25;;;;;;;;;;2374004;56;21094;-75
2021/12/14 06:21:18;;;;;;;21.33;11.93;;;;;;;;;;2373865;56;21118;-76
2021/12/14 06:23:45;;;;;;;16.80;11.12;;;;;;;;;;2374366;56;21098;-75
2021/12/14 06:26:15;;;;;;;22.02;12.85;;;;;;;;;;2374673;56;21007;-75
2021/12/14 06:28:42;;;;;;;19.58;11.90;;;;;;;;;;2374385;56;21106;-74
2021/12/14 06:31:09;;;;;;;20.50;13.25;;;;;;;;;;2374034;56;21011;-76
2021/12/14 06:33:36;;;;;;;24.17;14.20;;;;;;;;;;2374131;56;21023;-74
2021/12/14 06:36:11;;;;;;;20.88;13.50;;;;;;;;;;2374670;56;21012;-75
2021/12/14 06:38:38;;;;;;;22.83;12.65;;;;;;;;;;2374626;56;21055;-75
2021/12/14 06:41:08;;;;;;;19.42;12.13;;;;;;;;;;2373707;56;21577;-75
2021/12/14 06:43:37;;;;;;;23.85;13.98;;;;;;;;;;2627886;52;21055;-76
2021/12/14 06:46:05;;;;;;;23.50;13.77;;;;;;;;;;2627468;52;21545;-75
2021/12/14 06:48:34;;;;;;;24.30;15.32;;;;;;;;;;2374584;56;21129;-75
2021/12/14 06:51:04;;;;;;;24.65;15.05;;;;;;;;;;2374348;56;22112;-76
2021/12/14 06:53:32;;;;;;;26.55;16.33;;;;;;;;;;2374660;56;21027;-75
2021/12/14 06:56:00;;;;;;;27.17;15.05;;;;;;;;;;2374329;56;21623;-76
2021/12/14 06:58:30;;;;;;;29.95;16.25;;;;;;;;;;2374488;56;21010;-75
2021/12/14 07:01:02;;;;;;;24.48;14.15;;;;;;;;;;2627333;52;21411;-76
2021/12/14 07:03:37;;;;;;;22.25;13.35;;;;;;;;;;2374445;56;21553;-76
2021/12/14 07:06:04;;;;;;;22.55;13.27;;;;;;;;;;2374213;56;22092;-76
2021/12/14 07:08:32;;;;;;;22.17;13.55;;;;;;;;;;2374112;56;21089;-75
2021/12/14 07:10:59;;;;;;;20.20;12.80;;;;;;;;;;2373303;56;21545;-75
2021/12/14 07:13:28;;;;;;;29.83;16.95;;;;;;;;;;2374395;56;21114;-75
2021/12/14 07:15:55;;;;;;;29.20;16.83;;;;;;;;;;2374288;56;21015;-74
2021/12/14 07:18:25;;;;;;;23.38;13.05;;;;;;;;;;2374032;56;21608;-77
2021/12/14 07:20:52;;;;;;;27.48;16.85;;;;;;;;;;2372591;56;21485;-76
2021/12/14 07:23:21;;;;;;;27.37;16.83;;;;;;;;;;2374300;56;21548;-75
2021/12/14 07:25:54;;;;;;;34.08;18.52;;;;;;;;;;2374458;56;21026;-76
2021/12/14 07:28:21;;;;;;;27.47;16.53;;;;;;;;;;2375062;56;21023;-77
2021/12/14 07:30:50;;;;;;;34.20;18.17;;;;;;;;;;2374110;56;22170;-77
2021/12/14 07:33:18;;;;;;;36.22;19.12;;;;;;;;;;2374075;56;21510;-76
2021/12/14 07:35:53;;;;;;;31.65;17.98;;;;;;;;;;2374908;56;21074;-76
2021/12/14 07:38:23;;;;;;;31.62;18.15;;;;;;;;;;2374741;56;21086;-77
2021/12/14 07:40:51;;;;;;;34.40;19.12;;;;;;;;;;2374494;56;21577;-77
2021/12/14 07:43:19;;;;;;;33.90;19.60;;;;;;;;;;2375199;56;21039;-77
2021/12/14 07:45:47;;;;;;;33.53;16.70;;;;;;;;;;2374841;56;22000;-77
2021/12/14 07:48:15;;;;;;;25.88;15.93;;;;;;;;;;2375411;56;21054;-77
2021/12/14 07:50:45;;;;;;;32.15;18.73;;;;;;;;;;2374104;56;21086;-75
2021/12/14 07:53:12;;;;;;;32.50;18.70;;;;;;;;;;2375034;56;21078;-77
2021/12/14 07:55:41;;;;;;;33.25;17.83;;;;;;;;;;2374812;56;21070;-77
2021/12/14 07:58:08;;;;;;;32.25;18.98;;;;;;;;;;2375074;56;21070;-76
2021/12/14 08:00:40;;;;;;;37.92;20.27;;;;;;;;;;2374539;56;21015;-76
2021/12/14 08:03:08;;;;;;;37.17;19.77;;;;;;;;;;2374993;56;21051;-75
2021/12/14 08:05:36;;;;;;;33.25;17.67;;;;;;;;;;2375235;56;21094;-77
2021/12/14 08:08:09;;;;;;;31.77;17.70;;;;;;;;;;2374961;56;21014;-77
2021/12/14 08:10:39;;;;;;;35.85;18.65;;;;;;;;;;2373720;56;21015;-77
2021/12/14 08:13:08;;;;;;;37.10;20.15;;;;;;;;;;2374675;56;21011;-76
2021/12/14 08:15:39;;;;;;;30.27;17.15;;;;;;;;;;2373548;56;21031;-76
2021/12/14 08:18:08;;;;;;;28.65;17.23;;;;;;;;;;2374039;56;21023;-77
2021/12/14 08:20:36;;;;;;;31.75;18.65;;;;;;;;;;2374124;56;21034;-75
2021/12/14 08:23:12;;;;;;;33.22;19.02;;;;;;;;;;2374623;56;21636;-75
2021/12/14 08:25:40;;;;;;;38.70;19.42;;;;;;;;;;2374749;56;21293;-74
2021/12/14 08:28:07;;;;;;;33.10;17.67;;;;;;;;;;2374039;56;21027;-76
2021/12/14 08:30:35;;;;;;;29.23;15.52;;;;;;;;;;2374021;56;21138;-77
2021/12/14 08:33:03;;;;;;;35.22;18.67;;;;;;;;;;2374509;56;21478;-77
2021/12/14 08:35:30;;;;;;;38.15;20.25;;;;;;;;;;2627906;52;21027;-76
2021/12/14 08:38:02;;;;;;;38.35;17.73;;;;;;;;;;2628142;52;21011;-78
2021/12/14 08:40:32;;;;;;;30.80;16.65;;;;;;;;;;2373830;56;21039;-77
2021/12/14 08:43:04;;;;;;;32.58;18.33;;;;;;;;;;2608520;52;21059;-77
2021/12/14 08:45:33;;;;;;;32.75;18.30;;;;;;;;;;2374384;56;21070;-77
2021/12/14 08:48:07;;;;;;;35.05;19.58;;;;;;;;;;2374221;56;21023;-77
2021/12/14 08:50:36;;;;;;;39.55;20.85;;;;;;;;;;2373632;56;21568;-78
2021/12/14 08:53:04;;;;;;;35.35;18.65;;;;;;;;;;2627999;52;21608;-77
2021/12/14 08:55:32;;;;;;;36.17;18.95;;;;;;;;;;2374446;56;21521;-77
2021/12/14 08:58:00;;;;;;;39.55;21.80;;;;;;;;;;2374458;56;21097;-76
2021/12/14 09:00:29;;;;;;;38.65;21.50;;;;;;;;;;2374043;56;21896;-77
2021/12/14 09:02:59;;;;;;;37.58;19.67;;;;;;;;;;2374557;56;21078;-76
2021/12/14 09:05:28;;;;;;;37.63;19.83;;;;;;;;;;2373903;56;21086;-76
2021/12/14 09:07:55;;;;;;;34.45;18.35;;;;;;;;;;2373937;56;21588;-77
2021/12/14 09:10:24;;;;;;;36.65;19.27;;;;;;;;;;2373900;56;21090;-75
2021/12/14 09:12:51;;;;;;;42.38;22.70;;;;;;;;;;2374261;56;21027;-75
2021/12/14 09:15:23;;;;;;;44.78;22.00;;;;;;;;;;2374587;56;21015;-76
2021/12/14 09:17:51;;;;;;;38.20;20.48;;;;;;;;;;2375042;56;21105;-77
2021/12/14 09:20:21;;;;;;;37.00;19.05;;;;;;;;;;2374266;56;21562;-77
2021/12/14 09:22:51;;;;;;;39.25;21.12;;;;;;;;;;2374280;56;21098;-76
2021/12/14 09:25:20;;;;;;;36.13;19.62;;;;;;;;;;2374330;56;21027;-77
2021/12/14 09:27:47;;;;;;;34.33;18.92;;;;;;;;;;2374927;56;21031;-76
2021/12/14 09:30:15;;;;;;;45.08;23.15;;;;;;;;;;2374300;56;21090;-77
2021/12/14 09:32:43;;;;;;;36.22;19.02;;;;;;;;;;2374752;56;21082;-77
2021/12/14 09:35:16;;;;;;;40.40;20.85;;;;;;;;;;2375133;56;21082;-76
2021/12/14 09:37:43;;;;;;;41.55;20.67;;;;;;;;;;2374809;56;21027;-78
2021/12/14 09:40:13;;;;;;;41.45;20.02;;;;;;;;;;2374394;56;21038;-78
2021/12/14 09:42:41;;;;;;;37.67;19.40;;;;;;;;;;2375004;56;21031;-77
2021/12/14 09:45:11;;;;;;;33.72;17.83;;;;;;;;;;2375161;56;21015;-77
2021/12/14 09:47:38;;;;;;;40.72;21.25;;;;;;;;;;2374867;56;21510;-77
2021/12/14 09:50:10;;;;;;;35.78;18.83;;;;;;;;;;2628335;52;21015;-77
2021/12/14 09:52:39;;;;;;;42.17;21.05;;;;;;;;;;2375177;56;21573;-77
2021/12/14 09:55:08;;;;;;;40.45;21.35;;;;;;;;;;2627683;52;21027;-77
2021/12/14 09:57:37;;;;;;;40.50;20.92;;;;;;;;;;2374718;56;21090;-76
2021/12/14 10:00:09;;;;;;;44.70;22.48;;;;;;;;;;2375047;56;21501;-77
2021/12/14 10:02:39;;;;;;;40.60;20.58;;;;;;;;;;2375196;56;21094;-77
2021/12/14 10:05:08;;;;;;;29.45;17.05;;;;;;;;;;2375115;56;21094;-76
2021/12/14 10:07:36;;;;;;;36.88;18.52;;;;;;;;;;2375210;56;21087;-76
2021/12/14 10:10:05;;;;;;;35.08;18.37;;;;;;;;;;2374946;56;21023;-77
2021/12/14 10:12:49;;;;;;;44.03;20.80;;;;;;;;;;2628242;52;21644;-76
2021/12/14 10:15:15;;;;;;;;;;;;;;;;;;2630348;52;21071;-77
2021/12/14 10:17:43;;;;;;;44.05;21.42;;;;;;;;;;2374316;56;20062;-76
2021/12/14 10:20:12;;;;;;;41.40;19.75;;;;;;;;;;2374522;56;21030;-75
2021/12/14 10:22:39;;;;;;;38.30;19.55;;;;;;;;;;2372196;56;21059;-76
2021/12/14 10:25:09;;;;;;;43.25;20.98;;;;;;;;;;2373985;56;21056;-74
2021/12/14 10:27:36;;;;;;;35.10;19.52;;;;;;;;;;2373470;56;21019;-76
2021/12/14 10:30:05;;;;;;;55.12;23.70;;;;;;;;;;2364944;53;21030;-76
2021/12/14 10:32:34;;;;;;;36.08;19.10;;;;;;;;;;2345119;57;21527;-77
2021/12/14 10:35:03;;;;;;;42.67;19.33;;;;;;;;;;2345012;57;21033;-77
2021/12/14 10:37:40;;;;;;;40.03;19.67;;;;;;;;;;2345293;57;21054;-78
2021/12/14 10:43:12;;;;;;;37.45;17.50;;;;;;;;;;2389356;53;21552;-76
2021/12/14 10:45:42;;;;;;;32.72;15.52;;;;;;;;;;2344918;57;21316;-75
2021/12/14 10:48:09;;;;;;;37.15;19.02;;;;;;;;;;2344707;57;21038;-77
2021/12/14 10:50:38;;;;;;;32.63;16.55;;;;;;;;;;2344732;57;21058;-75
2021/12/14 10:53:06;;;;;;;34.63;16.85;;;;;;;;;;2348158;53;21136;-77
2021/12/14 10:55:36;;;;;;;33.47;16.85;;;;;;;;;;2373394;53;21050;-78
2021/12/14 10:58:05;;;;;;;36.17;18.20;;;;;;;;;;2344787;57;21106;-77
2021/12/14 11:00:36;;;;;;;41.35;18.58;;;;;;;;;;2344217;57;21026;-76
2021/12/14 11:03:07;;;;;;;34.10;17.20;;;;;;;;;;2386070;53;21057;-76
2021/12/14 11:05:36;;;;;;;34.63;17.00;;;;;;;;;;2370735;53;21050;-77
2021/12/14 11:08:05;;;;;;;45.78;19.33;;;;;;;;;;2345042;57;21054;-77
2021/12/14 11:10:34;;;;;;;36.58;18.62;;;;;;;;;;2344646;57;21126;-78
2021/12/14 11:13:04;;;;;;;34.30;18.40;;;;;;;;;;2344837;57;21462;-78
2021/12/14 11:15:35;;;;;;;35.25;18.15;;;;;;;;;;2344943;57;21233;-77
2021/12/14 11:18:11;;;;;;;31.85;16.52;;;;;;;;;;2344614;57;21049;-78
2021/12/14 11:20:40;;;;;;;29.23;16.80;;;;;;;;;;2344516;57;21057;-80
2021/12/14 11:23:09;;;;;;;34.63;16.40;;;;;;;;;;2345222;57;22246;-77
2021/12/14 11:25:40;;;;;;;32.17;16.48;;;;;;;;;;2423749;53;21054;-76
2021/12/14 11:28:09;;;;;;;26.70;14.30;;;;;;;;;;2446426;53;21580;-75
2021/12/14 11:30:37;;;;;;;27.17;15.25;;;;;;;;;;2343813;57;21038;-76
2021/12/14 11:33:08;;;;;;;31.25;16.42;;;;;;;;;;2360887;53;21643;-78
2021/12/14 11:35:37;;;;;;;31.77;15.90;;;;;;;;;;2489700;53;21113;-77
2021/12/14 11:38:11;;;;;;;30.70;16.62;;;;;;;;;;2343983;57;21109;-77
2021/12/14 11:40:39;;;;;;;35.83;16.60;;;;;;;;;;2344500;57;21034;-78
2021/12/14 11:45:47;;;;;;;33.50;17.33;;;;;;;;;;2325913;57;23218;-75
2021/12/14 11:48:14;;;;;;;29.20;16.02;;;;;;;;;;2316635;58;21064;-77
2021/12/14 11:50:43;;;;;;;29.05;15.50;;;;;;;;;;2315397;58;21164;-77
2021/12/14 11:53:15;;;;;;;34.08;17.60;;;;;;;;;;2342900;54;21523;-77
2021/12/14 11:55:43;;;;;;;33.97;17.35;;;;;;;;;;2315791;58;21048;-77
2021/12/14 11:58:16;;;;;;;37.42;18.58;;;;;;;;;;2315511;58;21048;-77
2021/12/14 12:00:45;;;;;;;34.53;16.97;;;;;;;;;;2353517;54;21060;-77
2021/12/14 12:03:19;;;;;;;34.30;17.42;;;;;;;;;;2317950;54;21120;-78
2021/12/14 12:05:59;;;;;;;38.22;17.87;;;;;;;;;;2316305;58;21068;-76
2021/12/14 12:11:12;;;;;;;30.77;16.48;;;;;;;;;;2316738;54;20992;-76
2021/12/14 12:13:40;;;;;;;33.10;18.50;;;;;;;;;;2315808;58;21096;-77
2021/12/14 12:16:14;;;;;;;38.00;17.80;;;;;;;;;;2315798;56;21116;-77
2021/12/14 12:19:02;;;;;;;31.87;17.58;;;;;;;;;;2315655;58;21068;-78
2021/12/14 12:21:29;;;;;;;29.48;16.27;;;;;;;;;;2324165;54;21140;-77
2021/12/14 12:23:56;;;;;;;27.50;14.57;;;;;;;;;;2316622;54;21123;-77
2021/12/14 12:26:28;;;;;;;29.25;15.80;;;;;;;;;;2316051;58;21113;-77
2021/12/14 12:29:02;;;;;;;31.10;17.25;;;;;;;;;;2345556;54;21048;-76
2021/12/14 12:31:29;;;;;;;34.15;17.10;;;;;;;;;;2315855;58;21088;-77
2021/12/14 12:33:57;;;;;;;33.42;17.58;;;;;;;;;;2315552;58;21095;-77
2021/12/14 12:36:27;;;;;;;34.58;17.08;;;;;;;;;;2314194;58;21694;-76
2021/12/14 12:38:55;;;;;;;30.25;15.63;;;;;;;;;;2316121;58;21095;-77
2021/12/14 12:41:26;;;;;;;29.75;16.30;;;;;;;;;;2315293;58;21104;-77
2021/12/14 12:43:55;;;;;;;30.75;15.20;;;;;;;;;;2315136;58;21111;-76
2021/12/14 12:46:24;;;;;;;29.40;16.25;;;;;;;;;;2315973;58;21138;-77
2021/12/14 12:48:54;;;;;;;37.83;19.30;;;;;;;;;;2320171;54;21045;-77
2021/12/14 12:51:35;;;;;;;28.77;15.40;;;;;;;;;;2315983;58;21559;-77
2021/12/14 12:54:13;;;;;;;26.27;14.23;;;;;;;;;;2315863;58;21116;-77
2021/12/14 12:56:42;;;;;;;24.67;14.18;;;;;;;;;;2315341;58;21056;-76
2021/12/14 12:59:09;;;;;;;26.77;14.82;;;;;;;;;;2452854;54;21052;-77
2021/12/14 13:01:38;;;;;;;28.80;15.00;;;;;;;;;;2314977;58;21061;-78
2021/12/14 13:04:05;;;;;;;24.92;13.38;;;;;;;;;;2315270;58;21064;-76
2021/12/14 13:06:33;;;;;;;26.65;14.25;;;;;;;;;;2321200;54;21076;-77
2021/12/14 13:09:00;;;;;;;26.25;14.43;;;;;;;;;;2312806;58;21124;-77
2021/12/14 13:11:29;;;;;;;26.27;13.95;;;;;;;;;;2315015;58;21137;-77
2021/12/14 13:13:57;;;;;;;25.98;14.35;;;;;;;;;;2315231;58;21168;-77
2021/12/14 13:16:25;;;;;;;24.02;14.15;;;;;;;;;;2314325;58;21049;-75
2021/12/14 13:18:56;;;;;;;27.30;13.30;;;;;;;;;;2316315;54;21147;-76
2021/12/14 13:21:25;;;;;;;29.90;16.05;;;;;;;;;;2319541;54;21654;-76
2021/12/14 13:23:59;;;;;;;26.75;15.10;;;;;;;;;;2316995;58;21065;-77
2021/12/14 13:26:34;;;;;;;24.23;13.27;;;;;;;;;;2316906;58;21105;-76
2021/12/14 13:29:08;;;;;;;23.52;13.70;;;;;;;;;;2314569;58;21646;-77
2021/12/14 13:31:37;;;;;;;25.40;14.50;;;;;;;;;;2316261;58;21112;-77
2021/12/14 13:34:07;;;;;;;22.23;13.65;;;;;;;;;;2316579;58;21041;-76
2021/12/14 13:36:34;;;;;;;23.27;12.63;;;;;;;;;;2316275;58;22120;-75
2021/12/14 13:39:01;;;;;;;27.40;15.45;;;;;;;;;;2316122;58;22004;-77
2021/12/14 13:41:50;;;;;;;27.58;14.05;;;;;;;;;;2315467;58;21092;-77
2021/12/14 13:44:17;;;;;;;22.05;12.70;;;;;;;;;;2315561;58;21595;-77
2021/12/14 13:46:44;;;;;;;21.40;13.13;;;;;;;;;;2532922;54;21052;-76
2021/12/14 13:49:12;;;;;;;22.73;13.02;;;;;;;;;;2315694;58;21117;-76
2021/12/14 13:51:39;;;;;;;21.10;12.05;;;;;;;;;;2316135;58;21116;-76
2021/12/14 13:54:07;;;;;;;21.35;12.35;;;;;;;;;;2316354;58;21057;-76
2021/12/14 13:56:35;;;;;;;20.05;11.75;;;;;;;;;;2316333;58;21595;-75
2021/12/14 13:59:03;;;;;;;21.55;11.50;;;;;;;;;;2317350;54;21398;-78
2021/12/14 14:01:33;;;;;;;21.67;12.77;;;;;;;;;;2316132;58;21041;-77
2021/12/14 14:04:02;;;;;;;23.85;13.85;;;;;;;;;;2364081;54;21116;-77
2021/12/14 14:06:30;;;;;;;18.70;11.27;;;;;;;;;;2315693;58;21096;-76
2021/12/14 14:09:01;;;;;;;27.45;13.80;;;;;;;;;;2334406;54;21052;-77
2021/12/14 14:11:30;;;;;;;20.85;12.43;;;;;;;;;;2316198;58;21124;-77
2021/12/14 14:13:59;;;;;;;19.45;11.88;;;;;;;;;;2316909;58;21112;-76
2021/12/14 14:16:36;;;;;;;24.30;12.77;;;;;;;;;;2316130;58;21629;-77
2021/12/14 14:19:06;;;;;;;19.67;11.52;;;;;;;;;;2316409;58;21065;-77
2021/12/14 14:24:18;;;;;;;21.85;14.82;;;;;;;;;;2335741;57;28418;-78
2021/12/14 14:26:45;;;;;;;17.62;11.23;;;;;;;;;;2346276;57;21122;-77
2021/12/14 14:29:13;;;;;;;20.62;11.93;;;;;;;;;;2345313;57;21751;-77
2021/12/14 14:31:45;;;;;;;17.67;11.00;;;;;;;;;;2521821;53;22254;-77
2021/12/14 14:34:26;;;;;;;17.23;10.73;;;;;;;;;;2345926;57;21042;-77
2021/12/14 14:37:01;;;;;;;16.80;10.60;;;;;;;;;;2345547;57;21066;-78
2021/12/14 14:39:31;;;;;;;18.35;10.48;;;;;;;;;;2528031;53;21026;-78
2021/12/14 14:42:00;;;;;;;17.77;10.52;;;;;;;;;;2343993;57;21042;-77
2021/12/14 14:44:33;;;;;;;17.95;10.30;;;;;;;;;;2346479;57;21034;-78
2021/12/14 14:47:02;;;;;;;19.73;10.65;;;;;;;;;;2345208;57;21049;-78
2021/12/14 14:49:47;;;;;;;18.20;10.68;;;;;;;;;;2345648;57;21101;-77
2021/12/14 14:52:17;;;;;;;20.05;11.23;;;;;;;;;;2345534;57;21112;-78
2021/12/14 14:54:46;;;;;;;20.42;11.02;;;;;;;;;;2346325;57;21097;-78
2021/12/14 14:57:33;;;;;;;17.23;10.70;;;;;;;;;;2345493;57;21086;-78
2021/12/14 15:00:24;;;;;;;17.80;10.57;;;;;;;;;;2345738;57;21113;-77
2021/12/14 15:02:53;;;;;;;16.40;9.98;;;;;;;;;;2345095;57;21041;-77
2021/12/14 15:05:23;;;;;;;19.20;10.55;;;;;;;;;;2346157;57;21050;-77